sensor_id;sensor_type;location;lat;lon;timestamp;temperature;humidity
20041;DHT22;10181;48.072;9.884;2024-03-22T00:01:45;4.40;99.90
20041;DHT22;10181;48.072;9.884;2024-03-22T00:04:12;4.40;99.90
20041;DHT22;10181;48.072;9.884;2024-03-22T00:06:38;4.50;99.90
20041;DHT22;10181;48.072;9.884;2024-03-22T00:09:04;4.40;99.90
20041;DHT22;10181;48.072;9.884;2024-03-22T00:11:30;4.40;99.90
20041;DHT22;10181;48.072;9.884;2024-03-22T00:13:55;4.50;99.90
20041;DHT22;10181;48.072;9.884;2024-03-22T00:16:21;4.40;99.90
20041;DHT22;10181;48.072;9.884;2024-03-22T00:18:46;4.40;99.90
20041;DHT22;10181;48.072;9.884;2024-03-22T00:21:12;4.40;99.90
20041;DHT22;10181;48.072;9.884;2024-03-22T00:23:37;4.40;99.90
20041;DHT22;10181;48.072;9.884;2024-03-22T00:26:03;4.40;99.90
20041;DHT22;10181;48.072;9.884;2024-03-22T00:28:29;4.40;99.90
20041;DHT22;10181;48.072;9.884;2024-03-22T00:30:54;4.40;99.90
20041;DHT22;10181;48.072;9.884;2024-03-22T00:33:20;4.40;99.90
20041;DHT22;10181;48.072;9.884;2024-03-22T00:35:45;4.40;99.90
20041;DHT22;10181;48.072;9.884;2024-03-22T00:38:11;4.40;99.90
20041;DHT22;10181;48.072;9.884;2024-03-22T00:40:37;4.40;99.90
20041;DHT22;10181;48.072;9.884;2024-03-22T00:43:02;4.40;99.90
20041;DHT22;10181;48.072;9.884;2024-03-22T00:45:28;4.40;99.90
20041;DHT22;10181;48.072;9.884;2024-03-22T00:47:53;4.40;99.90
20041;DHT22;10181;48.072;9.884;2024-03-22T00:50:19;4.40;99.90
20041;DHT22;10181;48.072;9.884;2024-03-22T00:52:44;4.40;99.90
20041;DHT22;10181;48.072;9.884;2024-03-22T00:55:10;4.40;99.90
20041;DHT22;10181;48.072;9.884;2024-03-22T00:57:36;4.50;99.90
20041;DHT22;10181;48.072;9.884;2024-03-22T01:00:01;4.40;99.90
20041;DHT22;10181;48.072;9.884;2024-03-22T01:02:27;4.30;99.90
20041;DHT22;10181;48.072;9.884;2024-03-22T01:04:52;4.30;99.90
20041;DHT22;10181;48.072;9.884;2024-03-22T01:07:18;4.20;99.90
20041;DHT22;10181;48.072;9.884;2024-03-22T01:09:44;4.10;99.90
20041;DHT22;10181;48.072;9.884;2024-03-22T01:12:10;4.10;99.90
20041;DHT22;10181;48.072;9.884;2024-03-22T01:14:36;4.10;99.90
20041;DHT22;10181;48.072;9.884;2024-03-22T01:17:02;4.10;99.90
20041;DHT22;10181;48.072;9.884;2024-03-22T01:19:27;4.10;99.90
20041;DHT22;10181;48.072;9.884;2024-03-22T01:21:53;4.10;99.90
20041;DHT22;10181;48.072;9.884;2024-03-22T01:24:19;4.00;99.90
20041;DHT22;10181;48.072;9.884;2024-03-22T01:26:44;4.00;99.90
20041;DHT22;10181;48.072;9.884;2024-03-22T01:29:10;4.00;99.90
20041;DHT22;10181;48.072;9.884;2024-03-22T01:31:35;4.00;99.90
20041;DHT22;10181;48.072;9.884;2024-03-22T01:34:01;4.00;99.90
20041;DHT22;10181;48.072;9.884;2024-03-22T01:36:26;4.00;99.90
20041;DHT22;10181;48.072;9.884;2024-03-22T01:38:52;3.90;99.90
20041;DHT22;10181;48.072;9.884;2024-03-22T01:41:18;3.90;99.90
20041;DHT22;10181;48.072;9.884;2024-03-22T01:43:43;3.90;99.90
20041;DHT22;10181;48.072;9.884;2024-03-22T01:46:09;3.90;99.90
20041;DHT22;10181;48.072;9.884;2024-03-22T01:48:35;3.90;99.90
20041;DHT22;10181;48.072;9.884;2024-03-22T01:51:02;3.90;99.90
20041;DHT22;10181;48.072;9.884;2024-03-22T01:53:28;3.90;99.90
20041;DHT22;10181;48.072;9.884;2024-03-22T01:55:54;3.80;99.90
20041;DHT22;10181;48.072;9.884;2024-03-22T01:58:19;3.80;99.90
20041;DHT22;10181;48.072;9.884;2024-03-22T02:00:47;3.80;99.90
20041;DHT22;10181;48.072;9.884;2024-03-22T02:03:12;3.80;99.90
20041;DHT22;10181;48.072;9.884;2024-03-22T02:05:38;3.80;99.90
20041;DHT22;10181;48.072;9.884;2024-03-22T02:08:04;3.80;99.90
20041;DHT22;10181;48.072;9.884;2024-03-22T02:10:30;3.80;99.90
20041;DHT22;10181;48.072;9.884;2024-03-22T02:12:56;3.70;99.90
20041;DHT22;10181;48.072;9.884;2024-03-22T02:15:21;3.70;99.90
20041;DHT22;10181;48.072;9.884;2024-03-22T02:17:47;3.70;99.90
20041;DHT22;10181;48.072;9.884;2024-03-22T02:20:13;3.70;99.90
20041;DHT22;10181;48.072;9.884;2024-03-22T02:22:38;3.70;99.90
20041;DHT22;10181;48.072;9.884;2024-03-22T02:25:04;3.70;99.90
20041;DHT22;10181;48.072;9.884;2024-03-22T02:27:30;3.60;99.90
20041;DHT22;10181;48.072;9.884;2024-03-22T02:29:55;3.60;99.90
20041;DHT22;10181;48.072;9.884;2024-03-22T02:32:21;3.50;99.90
20041;DHT22;10181;48.072;9.884;2024-03-22T02:34:47;3.50;99.90
20041;DHT22;10181;48.072;9.884;2024-03-22T02:37:13;3.40;99.90
20041;DHT22;10181;48.072;9.884;2024-03-22T02:39:38;3.40;99.90
20041;DHT22;10181;48.072;9.884;2024-03-22T02:42:04;3.30;99.90
20041;DHT22;10181;48.072;9.884;2024-03-22T02:44:29;3.30;99.90
20041;DHT22;10181;48.072;9.884;2024-03-22T02:46:55;3.20;99.90
20041;DHT22;10181;48.072;9.884;2024-03-22T02:49:20;3.20;99.90
20041;DHT22;10181;48.072;9.884;2024-03-22T02:51:46;3.10;99.90
20041;DHT22;10181;48.072;9.884;2024-03-22T02:54:12;3.10;99.90
20041;DHT22;10181;48.072;9.884;2024-03-22T02:56:38;3.10;99.90
20041;DHT22;10181;48.072;9.884;2024-03-22T02:59:03;3.10;99.90
20041;DHT22;10181;48.072;9.884;2024-03-22T03:01:29;3.10;99.90
20041;DHT22;10181;48.072;9.884;2024-03-22T03:03:54;3.10;99.90
20041;DHT22;10181;48.072;9.884;2024-03-22T03:06:20;3.20;99.90
20041;DHT22;10181;48.072;9.884;2024-03-22T03:08:46;3.20;99.90
20041;DHT22;10181;48.072;9.884;2024-03-22T03:11:13;3.20;99.90
20041;DHT22;10181;48.072;9.884;2024-03-22T03:13:39;3.10;99.90
20041;DHT22;10181;48.072;9.884;2024-03-22T03:16:05;3.10;99.90
20041;DHT22;10181;48.072;9.884;2024-03-22T03:18:30;3.10;99.90
20041;DHT22;10181;48.072;9.884;2024-03-22T03:20:56;3.00;99.90
20041;DHT22;10181;48.072;9.884;2024-03-22T03:23:21;3.00;99.90
20041;DHT22;10181;48.072;9.884;2024-03-22T03:25:47;3.00;99.90
20041;DHT22;10181;48.072;9.884;2024-03-22T03:28:13;3.00;99.90
20041;DHT22;10181;48.072;9.884;2024-03-22T03:30:39;3.00;99.90
20041;DHT22;10181;48.072;9.884;2024-03-22T03:33:05;3.00;99.90
20041;DHT22;10181;48.072;9.884;2024-03-22T03:35:30;3.00;99.90
20041;DHT22;10181;48.072;9.884;2024-03-22T03:37:56;3.00;99.90
20041;DHT22;10181;48.072;9.884;2024-03-22T03:40:22;3.00;99.90
20041;DHT22;10181;48.072;9.884;2024-03-22T03:42:50;2.90;99.90
20041;DHT22;10181;48.072;9.884;2024-03-22T03:45:16;2.90;99.90
20041;DHT22;10181;48.072;9.884;2024-03-22T03:47:41;2.80;99.90
20041;DHT22;10181;48.072;9.884;2024-03-22T03:50:07;2.70;99.90
20041;DHT22;10181;48.072;9.884;2024-03-22T03:52:33;2.70;99.90
20041;DHT22;10181;48.072;9.884;2024-03-22T03:54:58;2.70;99.90
20041;DHT22;10181;48.072;9.884;2024-03-22T03:57:24;2.70;99.90
20041;DHT22;10181;48.072;9.884;2024-03-22T03:59:49;2.70;99.90
20041;DHT22;10181;48.072;9.884;2024-03-22T04:02:15;2.70;99.90
20041;DHT22;10181;48.072;9.884;2024-03-22T04:04:40;2.70;99.90
20041;DHT22;10181;48.072;9.884;2024-03-22T04:07:06;2.70;99.90
20041;DHT22;10181;48.072;9.884;2024-03-22T04:09:32;2.70;99.90
20041;DHT22;10181;48.072;9.884;2024-03-22T04:11:58;2.70;99.90
20041;DHT22;10181;48.072;9.884;2024-03-22T04:14:25;2.70;99.90
20041;DHT22;10181;48.072;9.884;2024-03-22T04:16:50;2.80;99.90
20041;DHT22;10181;48.072;9.884;2024-03-22T04:19:16;2.70;99.90
20041;DHT22;10181;48.072;9.884;2024-03-22T04:21:42;2.70;99.90
20041;DHT22;10181;48.072;9.884;2024-03-22T04:24:08;2.70;99.90
20041;DHT22;10181;48.072;9.884;2024-03-22T04:26:33;2.70;99.90
20041;DHT22;10181;48.072;9.884;2024-03-22T04:28:59;2.70;99.90
20041;DHT22;10181;48.072;9.884;2024-03-22T04:31:24;2.70;99.90
20041;DHT22;10181;48.072;9.884;2024-03-22T04:33:50;2.60;99.90
20041;DHT22;10181;48.072;9.884;2024-03-22T04:36:16;2.60;99.90
20041;DHT22;10181;48.072;9.884;2024-03-22T04:38:41;2.70;99.90
20041;DHT22;10181;48.072;9.884;2024-03-22T04:41:07;2.80;99.90
20041;DHT22;10181;48.072;9.884;2024-03-22T04:43:32;2.80;99.90
20041;DHT22;10181;48.072;9.884;2024-03-22T04:45:58;2.80;99.90
20041;DHT22;10181;48.072;9.884;2024-03-22T04:48:24;2.90;99.90
20041;DHT22;10181;48.072;9.884;2024-03-22T04:50:50;2.80;99.90
20041;DHT22;10181;48.072;9.884;2024-03-22T04:53:17;2.80;99.90
20041;DHT22;10181;48.072;9.884;2024-03-22T04:55:44;2.80;99.90
20041;DHT22;10181;48.072;9.884;2024-03-22T04:58:20;2.80;99.90
20041;DHT22;10181;48.072;9.884;2024-03-22T05:00:47;2.80;99.90
20041;DHT22;10181;48.072;9.884;2024-03-22T05:03:13;2.90;99.90
20041;DHT22;10181;48.072;9.884;2024-03-22T05:05:40;2.90;99.90
20041;DHT22;10181;48.072;9.884;2024-03-22T05:08:06;3.00;99.90
20041;DHT22;10181;48.072;9.884;2024-03-22T05:10:33;3.10;99.90
20041;DHT22;10181;48.072;9.884;2024-03-22T05:12:59;3.20;99.90
20041;DHT22;10181;48.072;9.884;2024-03-22T05:15:25;3.20;99.90
20041;DHT22;10181;48.072;9.884;2024-03-22T05:17:51;3.20;99.90
20041;DHT22;10181;48.072;9.884;2024-03-22T05:20:17;3.20;99.90
20041;DHT22;10181;48.072;9.884;2024-03-22T05:22:43;3.20;99.90
20041;DHT22;10181;48.072;9.884;2024-03-22T05:25:09;3.30;99.90
20041;DHT22;10181;48.072;9.884;2024-03-22T05:27:35;3.30;99.90
20041;DHT22;10181;48.072;9.884;2024-03-22T05:30:01;3.30;99.90
20041;DHT22;10181;48.072;9.884;2024-03-22T05:32:29;3.30;99.90
20041;DHT22;10181;48.072;9.884;2024-03-22T05:34:55;3.40;99.90
20041;DHT22;10181;48.072;9.884;2024-03-22T05:37:20;3.40;99.90
20041;DHT22;10181;48.072;9.884;2024-03-22T05:39:46;3.50;99.90
20041;DHT22;10181;48.072;9.884;2024-03-22T05:42:12;3.50;99.90
20041;DHT22;10181;48.072;9.884;2024-03-22T05:44:38;3.50;99.90
20041;DHT22;10181;48.072;9.884;2024-03-22T05:47:03;3.60;99.90
20041;DHT22;10181;48.072;9.884;2024-03-22T05:49:29;3.60;99.90
20041;DHT22;10181;48.072;9.884;2024-03-22T05:51:55;3.60;99.90
20041;DHT22;10181;48.072;9.884;2024-03-22T05:54:21;3.60;99.90
20041;DHT22;10181;48.072;9.884;2024-03-22T05:56:46;3.60;99.90
20041;DHT22;10181;48.072;9.884;2024-03-22T05:59:12;3.60;99.90
20041;DHT22;10181;48.072;9.884;2024-03-22T06:01:38;3.70;99.90
20041;DHT22;10181;48.072;9.884;2024-03-22T06:04:04;3.80;99.90
20041;DHT22;10181;48.072;9.884;2024-03-22T06:06:34;3.80;99.90
20041;DHT22;10181;48.072;9.884;2024-03-22T06:08:59;3.90;99.90
20041;DHT22;10181;48.072;9.884;2024-03-22T06:11:28;4.00;99.90
20041;DHT22;10181;48.072;9.884;2024-03-22T06:13:54;4.10;99.90
20041;DHT22;10181;48.072;9.884;2024-03-22T06:16:19;4.20;99.90
20041;DHT22;10181;48.072;9.884;2024-03-22T06:18:45;4.30;99.90
20041;DHT22;10181;48.072;9.884;2024-03-22T06:21:10;4.40;99.90
20041;DHT22;10181;48.072;9.884;2024-03-22T06:23:36;4.50;99.90
20041;DHT22;10181;48.072;9.884;2024-03-22T06:26:02;4.60;99.90
20041;DHT22;10181;48.072;9.884;2024-03-22T06:28:28;4.70;99.90
20041;DHT22;10181;48.072;9.884;2024-03-22T06:30:54;4.80;99.90
20041;DHT22;10181;48.072;9.884;2024-03-22T06:33:20;4.90;99.90
20041;DHT22;10181;48.072;9.884;2024-03-22T06:35:46;5.00;99.90
20041;DHT22;10181;48.072;9.884;2024-03-22T06:38:12;5.10;99.90
20041;DHT22;10181;48.072;9.884;2024-03-22T06:40:38;5.10;99.90
20041;DHT22;10181;48.072;9.884;2024-03-22T06:43:04;5.20;99.90
20041;DHT22;10181;48.072;9.884;2024-03-22T06:45:29;5.30;99.90
20041;DHT22;10181;48.072;9.884;2024-03-22T06:47:55;5.50;99.90
20041;DHT22;10181;48.072;9.884;2024-03-22T06:50:21;5.60;99.90
20041;DHT22;10181;48.072;9.884;2024-03-22T06:52:53;5.70;99.90
20041;DHT22;10181;48.072;9.884;2024-03-22T06:55:19;5.80;99.90
20041;DHT22;10181;48.072;9.884;2024-03-22T06:57:46;6.10;99.90
20041;DHT22;10181;48.072;9.884;2024-03-22T07:00:12;6.40;99.90
20041;DHT22;10181;48.072;9.884;2024-03-22T07:02:39;6.80;99.90
20041;DHT22;10181;48.072;9.884;2024-03-22T07:05:06;7.20;99.90
20041;DHT22;10181;48.072;9.884;2024-03-22T07:07:31;7.40;99.90
20041;DHT22;10181;48.072;9.884;2024-03-22T07:09:57;7.60;99.90
20041;DHT22;10181;48.072;9.884;2024-03-22T07:12:22;7.80;99.90
20041;DHT22;10181;48.072;9.884;2024-03-22T07:14:48;7.90;99.90
20041;DHT22;10181;48.072;9.884;2024-03-22T07:17:13;8.00;99.90
20041;DHT22;10181;48.072;9.884;2024-03-22T07:19:40;8.20;99.90
20041;DHT22;10181;48.072;9.884;2024-03-22T07:22:06;8.20;99.90
20041;DHT22;10181;48.072;9.884;2024-03-22T07:24:32;8.30;99.90
20041;DHT22;10181;48.072;9.884;2024-03-22T07:26:58;8.40;99.90
20041;DHT22;10181;48.072;9.884;2024-03-22T07:29:23;8.50;99.90
20041;DHT22;10181;48.072;9.884;2024-03-22T07:31:49;8.70;99.90
20041;DHT22;10181;48.072;9.884;2024-03-22T07:34:14;8.70;99.90
20041;DHT22;10181;48.072;9.884;2024-03-22T07:36:40;8.90;99.90
20041;DHT22;10181;48.072;9.884;2024-03-22T07:39:06;9.00;99.90
20041;DHT22;10181;48.072;9.884;2024-03-22T07:41:33;9.20;99.90
20041;DHT22;10181;48.072;9.884;2024-03-22T07:44:02;9.40;99.90
20041;DHT22;10181;48.072;9.884;2024-03-22T07:46:28;9.50;99.90
20041;DHT22;10181;48.072;9.884;2024-03-22T07:48:53;9.80;99.90
20041;DHT22;10181;48.072;9.884;2024-03-22T07:51:22;9.90;99.90
20041;DHT22;10181;48.072;9.884;2024-03-22T07:53:48;10.00;99.90
20041;DHT22;10181;48.072;9.884;2024-03-22T07:56:14;10.20;99.90
20041;DHT22;10181;48.072;9.884;2024-03-22T07:58:41;10.30;99.90
20041;DHT22;10181;48.072;9.884;2024-03-22T08:01:07;10.40;99.90
20041;DHT22;10181;48.072;9.884;2024-03-22T08:03:33;10.50;99.90
20041;DHT22;10181;48.072;9.884;2024-03-22T08:05:58;10.50;99.90
20041;DHT22;10181;48.072;9.884;2024-03-22T08:08:24;10.50;99.90
20041;DHT22;10181;48.072;9.884;2024-03-22T08:10:50;10.50;99.90
20041;DHT22;10181;48.072;9.884;2024-03-22T08:13:16;10.50;99.90
20041;DHT22;10181;48.072;9.884;2024-03-22T08:15:42;10.40;99.90
20041;DHT22;10181;48.072;9.884;2024-03-22T08:18:09;10.40;99.90
20041;DHT22;10181;48.072;9.884;2024-03-22T08:20:34;10.40;99.90
20041;DHT22;10181;48.072;9.884;2024-03-22T08:23:00;10.30;99.90
20041;DHT22;10181;48.072;9.884;2024-03-22T08:25:26;10.40;99.90
20041;DHT22;10181;48.072;9.884;2024-03-22T08:27:51;10.50;99.90
20041;DHT22;10181;48.072;9.884;2024-03-22T08:30:21;10.60;99.90
20041;DHT22;10181;48.072;9.884;2024-03-22T08:32:46;10.70;99.90
20041;DHT22;10181;48.072;9.884;2024-03-22T08:35:12;10.80;99.90
20041;DHT22;10181;48.072;9.884;2024-03-22T08:37:37;11.00;99.90
20041;DHT22;10181;48.072;9.884;2024-03-22T08:40:03;11.20;99.90
20041;DHT22;10181;48.072;9.884;2024-03-22T08:42:32;11.40;99.90
20041;DHT22;10181;48.072;9.884;2024-03-22T08:44:58;11.50;99.90
20041;DHT22;10181;48.072;9.884;2024-03-22T08:47:24;11.70;99.90
20041;DHT22;10181;48.072;9.884;2024-03-22T08:49:50;11.90;99.90
20041;DHT22;10181;48.072;9.884;2024-03-22T08:52:15;12.10;99.90
20041;DHT22;10181;48.072;9.884;2024-03-22T08:54:41;12.30;99.90
20041;DHT22;10181;48.072;9.884;2024-03-22T08:57:07;12.40;99.90
20041;DHT22;10181;48.072;9.884;2024-03-22T08:59:32;12.50;99.90
20041;DHT22;10181;48.072;9.884;2024-03-22T09:01:58;12.70;99.90
20041;DHT22;10181;48.072;9.884;2024-03-22T09:04:25;12.90;99.90
20041;DHT22;10181;48.072;9.884;2024-03-22T09:06:50;13.10;99.90
20041;DHT22;10181;48.072;9.884;2024-03-22T09:09:16;13.20;99.90
20041;DHT22;10181;48.072;9.884;2024-03-22T09:11:42;13.20;99.90
20041;DHT22;10181;48.072;9.884;2024-03-22T09:14:08;13.30;99.90
20041;DHT22;10181;48.072;9.884;2024-03-22T09:16:34;13.40;99.90
20041;DHT22;10181;48.072;9.884;2024-03-22T09:19:00;13.40;99.90
20041;DHT22;10181;48.072;9.884;2024-03-22T09:21:25;13.40;99.90
20041;DHT22;10181;48.072;9.884;2024-03-22T09:23:51;13.50;99.90
20041;DHT22;10181;48.072;9.884;2024-03-22T09:26:16;13.40;99.90
20041;DHT22;10181;48.072;9.884;2024-03-22T09:28:42;13.40;99.90
20041;DHT22;10181;48.072;9.884;2024-03-22T09:31:11;13.40;99.90
20041;DHT22;10181;48.072;9.884;2024-03-22T09:33:36;13.50;99.90
20041;DHT22;10181;48.072;9.884;2024-03-22T09:36:02;13.70;99.90
20041;DHT22;10181;48.072;9.884;2024-03-22T09:38:28;13.70;99.90
20041;DHT22;10181;48.072;9.884;2024-03-22T09:40:54;13.80;99.90
20041;DHT22;10181;48.072;9.884;2024-03-22T09:43:23;13.60;99.90
20041;DHT22;10181;48.072;9.884;2024-03-22T09:45:49;13.50;99.90
20041;DHT22;10181;48.072;9.884;2024-03-22T09:48:19;13.40;99.90
20041;DHT22;10181;48.072;9.884;2024-03-22T09:50:47;13.50;99.90
20041;DHT22;10181;48.072;9.884;2024-03-22T09:53:18;13.40;99.90
20041;DHT22;10181;48.072;9.884;2024-03-22T09:55:46;13.30;99.90
20041;DHT22;10181;48.072;9.884;2024-03-22T09:58:12;13.20;99.90
20041;DHT22;10181;48.072;9.884;2024-03-22T10:00:38;13.30;99.90
20041;DHT22;10181;48.072;9.884;2024-03-22T10:03:04;13.40;99.90
20041;DHT22;10181;48.072;9.884;2024-03-22T10:05:31;13.50;99.90
20041;DHT22;10181;48.072;9.884;2024-03-22T10:07:56;13.60;99.90
20041;DHT22;10181;48.072;9.884;2024-03-22T10:10:22;13.70;99.90
20041;DHT22;10181;48.072;9.884;2024-03-22T10:12:48;13.80;99.90
20041;DHT22;10181;48.072;9.884;2024-03-22T10:15:14;13.90;99.90
20041;DHT22;10181;48.072;9.884;2024-03-22T10:17:40;14.00;99.90
20041;DHT22;10181;48.072;9.884;2024-03-22T10:20:06;13.90;99.90
20041;DHT22;10181;48.072;9.884;2024-03-22T10:22:41;13.90;99.90
20041;DHT22;10181;48.072;9.884;2024-03-22T10:25:06;14.00;99.90
20041;DHT22;10181;48.072;9.884;2024-03-22T10:27:32;14.00;99.90
20041;DHT22;10181;48.072;9.884;2024-03-22T10:29:58;14.10;99.90
20041;DHT22;10181;48.072;9.884;2024-03-22T10:32:24;14.00;99.90
20041;DHT22;10181;48.072;9.884;2024-03-22T10:34:50;14.10;99.90
20041;DHT22;10181;48.072;9.884;2024-03-22T10:37:16;14.10;99.90
20041;DHT22;10181;48.072;9.884;2024-03-22T10:39:42;14.00;99.90
20041;DHT22;10181;48.072;9.884;2024-03-22T10:42:11;14.20;99.90
20041;DHT22;10181;48.072;9.884;2024-03-22T10:44:37;14.30;99.90
20041;DHT22;10181;48.072;9.884;2024-03-22T10:47:04;14.30;99.90
20041;DHT22;10181;48.072;9.884;2024-03-22T10:49:37;14.30;99.90
20041;DHT22;10181;48.072;9.884;2024-03-22T10:52:03;14.40;99.90
20041;DHT22;10181;48.072;9.884;2024-03-22T10:54:34;14.50;99.90
20041;DHT22;10181;48.072;9.884;2024-03-22T10:57:02;14.70;99.90
20041;DHT22;10181;48.072;9.884;2024-03-22T10:59:33;14.80;99.90
20041;DHT22;10181;48.072;9.884;2024-03-22T11:02:03;14.90;99.90
20041;DHT22;10181;48.072;9.884;2024-03-22T11:04:30;15.10;99.90
20041;DHT22;10181;48.072;9.884;2024-03-22T11:06:57;15.20;99.90
20041;DHT22;10181;48.072;9.884;2024-03-22T11:09:26;15.10;99.90
20041;DHT22;10181;48.072;9.884;2024-03-22T11:11:52;15.10;99.90
20041;DHT22;10181;48.072;9.884;2024-03-22T11:14:18;15.30;99.90
20041;DHT22;10181;48.072;9.884;2024-03-22T11:16:46;15.20;99.90
20041;DHT22;10181;48.072;9.884;2024-03-22T11:19:11;15.20;99.90
20041;DHT22;10181;48.072;9.884;2024-03-22T11:21:38;15.10;99.90
20041;DHT22;10181;48.072;9.884;2024-03-22T11:24:04;15.40;99.90
20041;DHT22;10181;48.072;9.884;2024-03-22T11:26:31;15.30;99.90
20041;DHT22;10181;48.072;9.884;2024-03-22T11:28:58;15.50;99.90
20041;DHT22;10181;48.072;9.884;2024-03-22T11:31:23;15.50;99.90
20041;DHT22;10181;48.072;9.884;2024-03-22T11:33:56;15.80;99.90
20041;DHT22;10181;48.072;9.884;2024-03-22T11:36:25;15.80;99.90
20041;DHT22;10181;48.072;9.884;2024-03-22T11:38:50;15.90;99.90
20041;DHT22;10181;48.072;9.884;2024-03-22T11:41:21;16.10;99.90
20041;DHT22;10181;48.072;9.884;2024-03-22T11:43:48;16.50;99.90
20041;DHT22;10181;48.072;9.884;2024-03-22T11:46:15;16.40;99.10
20041;DHT22;10181;48.072;9.884;2024-03-22T11:48:41;16.10;99.50
20041;DHT22;10181;48.072;9.884;2024-03-22T11:51:08;16.30;99.00
20041;DHT22;10181;48.072;9.884;2024-03-22T11:53:35;16.30;96.70
20041;DHT22;10181;48.072;9.884;2024-03-22T11:56:01;16.70;97.60
20041;DHT22;10181;48.072;9.884;2024-03-22T11:58:29;16.80;95.90
20041;DHT22;10181;48.072;9.884;2024-03-22T12:00:58;16.80;98.50
20041;DHT22;10181;48.072;9.884;2024-03-22T12:03:23;16.60;97.40
20041;DHT22;10181;48.072;9.884;2024-03-22T12:05:49;16.60;98.20
20041;DHT22;10181;48.072;9.884;2024-03-22T12:08:19;16.70;98.10
20041;DHT22;10181;48.072;9.884;2024-03-22T12:10:45;16.60;97.80
20041;DHT22;10181;48.072;9.884;2024-03-22T12:13:11;16.60;98.80
20041;DHT22;10181;48.072;9.884;2024-03-22T12:15:36;16.70;97.20
20041;DHT22;10181;48.072;9.884;2024-03-22T12:18:02;16.70;98.10
20041;DHT22;10181;48.072;9.884;2024-03-22T12:20:28;17.00;97.70
20041;DHT22;10181;48.072;9.884;2024-03-22T12:22:55;17.20;97.80
20041;DHT22;10181;48.072;9.884;2024-03-22T12:25:20;17.70;97.10
20041;DHT22;10181;48.072;9.884;2024-03-22T12:27:46;18.00;97.70
20041;DHT22;10181;48.072;9.884;2024-03-22T12:30:12;18.50;94.70
20041;DHT22;10181;48.072;9.884;2024-03-22T12:32:38;18.80;94.50
20041;DHT22;10181;48.072;9.884;2024-03-22T12:35:04;18.80;92.50
20041;DHT22;10181;48.072;9.884;2024-03-22T12:37:30;18.80;92.70
20041;DHT22;10181;48.072;9.884;2024-03-22T12:39:56;18.40;91.00
20041;DHT22;10181;48.072;9.884;2024-03-22T12:42:21;18.20;91.40
20041;DHT22;10181;48.072;9.884;2024-03-22T12:44:47;17.90;91.00
20041;DHT22;10181;48.072;9.884;2024-03-22T12:47:13;17.90;91.30
20041;DHT22;10181;48.072;9.884;2024-03-22T12:49:39;18.00;89.90
20041;DHT22;10181;48.072;9.884;2024-03-22T12:52:05;18.10;91.50
20041;DHT22;10181;48.072;9.884;2024-03-22T12:54:30;18.10;89.60
20041;DHT22;10181;48.072;9.884;2024-03-22T12:56:56;18.40;91.10
20041;DHT22;10181;48.072;9.884;2024-03-22T12:59:22;18.80;90.90
20041;DHT22;10181;48.072;9.884;2024-03-22T13:01:47;18.60;88.30
20041;DHT22;10181;48.072;9.884;2024-03-22T13:04:13;18.30;89.30
20041;DHT22;10181;48.072;9.884;2024-03-22T13:06:38;18.20;89.50
20041;DHT22;10181;48.072;9.884;2024-03-22T13:09:04;18.20;90.10
20041;DHT22;10181;48.072;9.884;2024-03-22T13:11:31;17.80;87.70
20041;DHT22;10181;48.072;9.884;2024-03-22T13:13:57;17.80;85.50
20041;DHT22;10181;48.072;9.884;2024-03-22T13:16:23;17.40;87.20
20041;DHT22;10181;48.072;9.884;2024-03-22T13:18:49;17.40;85.70
20041;DHT22;10181;48.072;9.884;2024-03-22T13:21:14;17.50;88.30
20041;DHT22;10181;48.072;9.884;2024-03-22T13:23:40;18.20;83.50
20041;DHT22;10181;48.072;9.884;2024-03-22T13:26:06;18.30;81.10
20041;DHT22;10181;48.072;9.884;2024-03-22T13:28:32;18.40;83.60
20041;DHT22;10181;48.072;9.884;2024-03-22T13:31:02;18.70;83.00
20041;DHT22;10181;48.072;9.884;2024-03-22T13:33:29;18.50;83.20
20041;DHT22;10181;48.072;9.884;2024-03-22T13:35:54;18.70;86.10
20041;DHT22;10181;48.072;9.884;2024-03-22T13:38:20;18.60;80.00
20041;DHT22;10181;48.072;9.884;2024-03-22T13:40:53;18.20;80.30
20041;DHT22;10181;48.072;9.884;2024-03-22T13:43:19;18.10;82.70
20041;DHT22;10181;48.072;9.884;2024-03-22T13:45:44;18.10;82.20
20041;DHT22;10181;48.072;9.884;2024-03-22T13:48:11;18.00;82.70
20041;DHT22;10181;48.072;9.884;2024-03-22T13:50:38;18.00;83.10
20041;DHT22;10181;48.072;9.884;2024-03-22T13:53:03;17.80;81.00
20041;DHT22;10181;48.072;9.884;2024-03-22T13:55:29;17.30;81.40
20041;DHT22;10181;48.072;9.884;2024-03-22T13:57:54;17.50;81.10
20041;DHT22;10181;48.072;9.884;2024-03-22T14:00:20;17.20;81.20
20041;DHT22;10181;48.072;9.884;2024-03-22T14:02:45;17.10;82.70
20041;DHT22;10181;48.072;9.884;2024-03-22T14:05:17;16.90;81.70
20041;DHT22;10181;48.072;9.884;2024-03-22T14:07:43;17.00;83.00
20041;DHT22;10181;48.072;9.884;2024-03-22T14:10:09;17.10;81.70
20041;DHT22;10181;48.072;9.884;2024-03-22T14:12:35;17.10;84.10
20041;DHT22;10181;48.072;9.884;2024-03-22T14:15:00;17.10;84.60
20041;DHT22;10181;48.072;9.884;2024-03-22T14:17:26;17.00;82.40
20041;DHT22;10181;48.072;9.884;2024-03-22T14:19:52;16.90;84.30
20041;DHT22;10181;48.072;9.884;2024-03-22T14:22:18;17.00;87.20
20041;DHT22;10181;48.072;9.884;2024-03-22T14:24:43;17.10;85.10
20041;DHT22;10181;48.072;9.884;2024-03-22T14:27:09;17.10;86.00
20041;DHT22;10181;48.072;9.884;2024-03-22T14:29:35;16.90;83.50
20041;DHT22;10181;48.072;9.884;2024-03-22T14:32:00;16.80;85.50
20041;DHT22;10181;48.072;9.884;2024-03-22T14:34:26;16.90;84.60
20041;DHT22;10181;48.072;9.884;2024-03-22T14:36:51;16.80;84.20
20041;DHT22;10181;48.072;9.884;2024-03-22T14:39:17;17.00;86.40
20041;DHT22;10181;48.072;9.884;2024-03-22T14:41:43;16.90;87.20
20041;DHT22;10181;48.072;9.884;2024-03-22T14:44:09;16.60;85.70
20041;DHT22;10181;48.072;9.884;2024-03-22T14:46:35;16.60;85.50
20041;DHT22;10181;48.072;9.884;2024-03-22T14:49:00;16.40;83.10
20041;DHT22;10181;48.072;9.884;2024-03-22T14:51:26;16.40;86.30
20041;DHT22;10181;48.072;9.884;2024-03-22T14:53:52;16.40;85.50
20041;DHT22;10181;48.072;9.884;2024-03-22T14:56:17;16.60;86.90
20041;DHT22;10181;48.072;9.884;2024-03-22T14:58:43;16.90;88.90
20041;DHT22;10181;48.072;9.884;2024-03-22T15:01:09;17.10;87.30
20041;DHT22;10181;48.072;9.884;2024-03-22T15:03:35;17.10;85.60
20041;DHT22;10181;48.072;9.884;2024-03-22T15:06:01;17.30;85.00
20041;DHT22;10181;48.072;9.884;2024-03-22T15:08:27;17.10;84.30
20041;DHT22;10181;48.072;9.884;2024-03-22T15:10:56;17.00;83.60
20041;DHT22;10181;48.072;9.884;2024-03-22T15:13:22;17.00;82.60
20041;DHT22;10181;48.072;9.884;2024-03-22T15:15:55;17.10;85.00
20041;DHT22;10181;48.072;9.884;2024-03-22T15:18:21;17.20;84.50
20041;DHT22;10181;48.072;9.884;2024-03-22T15:20:47;17.30;82.20
20041;DHT22;10181;48.072;9.884;2024-03-22T15:23:16;17.20;85.20
20041;DHT22;10181;48.072;9.884;2024-03-22T15:25:42;17.40;85.90
20041;DHT22;10181;48.072;9.884;2024-03-22T15:28:09;17.10;84.30
20041;DHT22;10181;48.072;9.884;2024-03-22T15:30:35;17.00;85.30